Time;durP1;ratioP1;P1;durP2;ratioP2;P2;SDS_P1;SDS_P2;PMS_P1;PMS_P2;Temp;Humidity;BMP_temperature;BMP_pressure;BME280_temperature;BME280_humidity;BME280_pressure;Samples;Min_cycle;Max_cycle;Signal;HPM_P1;HPM_P2
2023/03/28 00:00:44;;;;;;;11.02;2.13;;;;;;;7.23;52.31;102641.69;5116651;28;20402;-61
2023/03/28 00:03:13;;;;;;;8.13;2.42;;;;;;;7.22;52.29;102645.34;5112986;28;20127;-61
2023/03/28 00:05:41;;;;;;;7.75;2.38;;;;;;;7.22;52.25;102651.53;5114516;28;20442;-61
2023/03/28 00:08:10;;;;;;;4.30;1.73;;;;;;;7.20;52.37;102642.84;5120624;28;20039;-61
2023/03/28 00:10:38;;;;;;;6.03;2.00;;;;;;;7.15;52.96;102640.63;5119035;28;20065;-61
2023/03/28 00:13:06;;;;;;;6.35;2.50;;;;;;;7.19;52.65;102641.16;5119827;28;20075;-61
2023/03/28 00:15:38;;;;;;;7.25;2.20;;;;;;;7.20;52.54;102650.88;5119936;28;20194;-61
2023/03/28 00:18:10;;;;;;;5.57;1.98;;;;;;;7.16;52.74;102639.63;5113269;27;20075;-61
2023/03/28 00:20:39;;;;;;;6.15;2.40;;;;;;;7.17;52.81;102646.66;5122823;28;20040;-61
2023/03/28 00:23:08;;;;;;;8.50;2.35;;;;;;;7.15;52.72;102640.63;5117239;28;20044;-61
2023/03/28 00:25:39;;;;;;;7.93;2.95;;;;;;;7.10;53.23;102632.25;5118766;28;20132;-61
2023/03/28 00:28:07;;;;;;;6.85;2.20;;;;;;;7.11;52.66;102639.25;5115560;28;20109;-61
2023/03/28 00:30:34;;;;;;;5.20;2.08;;;;;;;7.09;52.89;102641.25;5120914;28;20066;-61
2023/03/28 00:33:03;;;;;;;6.47;3.10;;;;;;;7.12;52.63;102646.28;5117970;28;20410;-61
2023/03/28 00:35:34;;;;;;;8.07;2.42;;;;;;;7.09;53.16;102637.75;5116468;28;20043;-61
2023/03/28 00:38:03;;;;;;;6.88;2.80;;;;;;;7.07;52.47;102639.72;5122492;27;20063;-61
2023/03/28 00:40:36;;;;;;;5.88;2.17;;;;;;;7.07;52.96;102645.06;5122756;28;20061;-61
2023/03/28 00:43:04;;;;;;;5.80;2.05;;;;;;;7.06;53.22;102643.41;5109891;28;20044;-61
2023/03/28 00:45:32;;;;;;;5.32;2.28;;;;;;;7.05;53.04;102639.03;5119967;28;20050;-61
2023/03/28 00:48:05;;;;;;;10.43;2.28;;;;;;;7.05;53.33;102641.72;5118844;28;20115;-61
2023/03/28 00:50:47;;;;;;;8.88;2.17;;;;;;;7.04;52.62;102635.53;5117543;28;20213;-61
2023/03/28 00:53:18;;;;;;;6.68;2.55;;;;;;;7.03;52.72;102646.38;5121412;28;20067;-61
2023/03/28 00:55:49;;;;;;;8.35;2.80;;;;;;;7.02;52.94;102652.72;5115836;28;20048;-61
2023/03/28 00:58:22;;;;;;;5.55;2.65;;;;;;;7.01;52.86;102651.88;5119578;28;20040;-61
2023/03/28 01:00:50;;;;;;;6.57;2.35;;;;;;;6.97;53.45;102645.16;5119711;28;20103;-61
2023/03/28 01:03:21;;;;;;;8.85;3.95;;;;;;;6.99;53.37;102653.03;5118944;28;20096;-61
2023/03/28 01:05:51;;;;;;;8.48;2.55;;;;;;;6.98;53.19;102643.31;5120285;28;20092;-60
2023/03/28 01:08:22;;;;;;;6.65;2.72;;;;;;;6.98;52.87;102646.00;5114859;28;20047;-61
2023/03/28 01:10:51;;;;;;;9.05;3.75;;;;;;;6.98;52.82;102646.84;5120237;28;20535;-61
2023/03/28 01:13:23;;;;;;;7.03;2.60;;;;;;;6.94;52.75;102639.28;5120068;28;20142;-61
2023/03/28 01:15:51;;;;;;;6.57;2.88;;;;;;;6.92;52.85;102644.81;5115170;28;20044;-61
2023/03/28 01:18:21;;;;;;;6.53;2.50;;;;;;;6.92;52.71;102639.47;5111560;28;20039;-61
2023/03/28 01:21:19;;;;;;;6.22;2.67;;;;;;;6.93;52.79;102635.81;5119565;28;20078;-61
2023/03/28 01:24:27;;;;;;;8.50;3.10;;;;;;;6.93;52.91;102642.97;5113519;28;20103;-61
2023/03/28 01:26:59;;;;;;;14.80;3.88;;;;;;;6.92;53.49;102639.47;5115673;28;20063;-61
2023/03/28 01:30:09;;;;;;;8.18;2.63;;;;;;;6.91;52.96;102631.59;5110596;28;20043;-61
2023/03/28 01:33:10;;;;;;;7.07;2.55;;;;;;;6.89;53.41;102630.91;5114709;28;20058;-61
2023/03/28 01:36:13;;;;;;;13.25;3.33;;;;;;;6.88;53.29;102639.94;5110699;28;20043;-61
2023/03/28 01:39:08;;;;;;;8.52;2.70;;;;;;;6.88;53.21;102630.09;5111504;28;20051;-61
2023/03/28 01:41:43;;;;;;;9.23;2.65;;;;;;;6.86;53.13;102629.41;5114280;28;20098;-61
2023/03/28 01:44:22;;;;;;;7.38;2.92;;;;;;;6.86;53.30;102626.72;5111041;28;20079;-61
2023/03/28 01:46:59;;;;;;;9.00;2.85;;;;;;;6.85;52.90;102623.22;5118649;28;20043;-61
2023/03/28 01:49:32;;;;;;;;;;;;;;;6.84;52.75;102626.88;5118783;28;20047;-61
2023/03/28 01:52:05;;;;;;;7.63;2.63;;;;;;;6.82;53.02;102618.16;5116937;28;19958;-61
2023/03/28 01:54:42;;;;;;;6.97;2.45;;;;;;;6.81;52.93;102623.66;5120716;28;20051;-61
2023/03/28 01:57:15;;;;;;;7.55;3.03;;;;;;;6.81;53.16;102621.00;5117910;28;20159;-61
2023/03/28 01:59:47;;;;;;;7.85;2.83;;;;;;;6.81;53.18;102619.16;5118174;28;20054;-61
2023/03/28 02:02:23;;;;;;;8.50;2.47;;;;;;;6.78;53.10;102619.47;5118038;28;20048;-61
2023/03/28 02:04:54;;;;;;;5.35;2.28;;;;;;;6.78;53.35;102622.16;5108818;28;20047;-61
2023/03/28 02:07:26;;;;;;;7.20;2.30;;;;;;;6.79;52.89;102628.31;5114202;28;20069;-61
2023/03/28 02:09:56;;;;;;;7.93;2.95;;;;;;;6.76;53.40;102617.94;5119458;28;20043;-61
2023/03/28 02:12:30;;;;;;;8.15;2.25;;;;;;;6.75;53.13;102625.13;5115884;28;20128;-61
2023/03/28 02:15:03;;;;;;;7.68;2.78;;;;;;;6.74;53.16;102620.78;5120262;28;20047;-61
2023/03/28 02:17:34;;;;;;;10.27;3.58;;;;;;;6.75;53.30;102622.44;5114918;28;20044;-61
2023/03/28 02:20:10;;;;;;;5.95;2.42;;;;;;;6.73;53.28;102615.56;5109232;28;20116;-61
2023/03/28 02:22:44;;;;;;;6.35;2.38;;;;;;;6.73;53.46;102619.09;5113402;28;20039;-61
2023/03/28 02:25:14;;;;;;;11.82;2.90;;;;;;;6.71;53.42;102612.22;5114013;28;20069;-61
2023/03/28 02:27:45;;;;;;;6.10;2.33;;;;;;;6.69;53.29;102612.38;5106916;28;20094;-61
2023/03/28 02:30:14;;;;;;;11.10;2.75;;;;;;;6.69;53.16;102615.03;5111559;28;20164;-61
2023/03/28 02:32:42;;;;;;;8.15;2.88;;;;;;;6.67;53.29;102613.53;5119512;28;20052;-61
2023/03/28 02:35:11;;;;;;;6.82;2.78;;;;;;;6.66;53.04;102607.34;5120200;28;20048;-61
2023/03/28 02:37:47;;;;;;;5.25;2.45;;;;;;;6.67;53.29;102605.50;5108811;28;20538;-62
2023/03/28 02:40:33;;;;;;;7.75;2.70;;;;;;;6.67;53.05;102611.69;5117919;28;20075;-61
2023/03/28 02:43:13;;;;;;;5.13;2.50;;;;;;;6.66;53.21;102610.00;5117645;28;20074;-61
2023/03/28 02:46:05;;;;;;;5.22;2.45;;;;;;;6.65;53.40;102607.50;5117889;28;20094;-61
2023/03/28 02:48:47;;;;;;;4.15;1.98;;;;;;;6.63;53.34;102607.66;5108938;28;20044;-62
2023/03/28 02:51:22;;;;;;;7.47;2.67;;;;;;;6.63;53.49;102607.66;5113417;28;20050;-61
2023/03/28 02:53:58;;;;;;;8.20;2.45;;;;;;;6.64;52.81;102605.81;5114582;28;20071;-61
2023/03/28 02:56:37;;;;;;;6.82;2.55;;;;;;;6.62;53.10;102611.31;5117239;28;20049;-61
2023/03/28 02:59:09;;;;;;;5.13;2.25;;;;;;;6.61;53.15;102606.97;5113844;28;20058;-61
2023/03/28 03:01:39;;;;;;;7.20;2.42;;;;;;;6.57;53.54;102597.56;5117711;28;20116;-61
2023/03/28 03:04:07;;;;;;;7.00;2.85;;;;;;;6.60;53.37;102599.94;5117745;28;20495;-62
2023/03/28 03:06:36;;;;;;;5.28;2.65;;;;;;;6.59;53.26;102595.59;5110975;28;20044;-61
2023/03/28 03:09:04;;;;;;;5.45;2.60;;;;;;;6.59;53.50;102600.09;5108659;28;20074;-61
2023/03/28 03:11:33;;;;;;;6.95;2.58;;;;;;;6.58;53.57;102598.41;5117782;28;20089;-62
2023/03/28 03:14:01;;;;;;;6.50;2.55;;;;;;;6.56;53.27;102595.88;5115260;28;20060;-61
2023/03/28 03:16:29;;;;;;;7.88;2.70;;;;;;;6.53;53.49;102604.22;5115337;28;20093;-61
2023/03/28 03:18:57;;;;;;;9.02;2.92;;;;;;;6.55;53.25;102601.38;5109693;28;20090;-62
2023/03/28 03:21:26;;;;;;;9.35;2.50;;;;;;;6.54;53.31;102597.88;5111692;28;20063;-61
2023/03/28 03:23:53;;;;;;;8.60;2.78;;;;;;;6.53;53.72;102609.53;5117156;28;20050;-61
2023/03/28 03:26:23;;;;;;;5.10;2.90;;;;;;;6.51;53.43;102606.19;5114099;28;20134;-62
2023/03/28 03:28:52;;;;;;;6.07;2.80;;;;;;;6.41;53.25;102584.06;5117235;28;20272;-61
2023/03/28 03:31:22;;;;;;;9.02;2.85;;;;;;;6.51;53.31;102611.53;5117076;28;20098;-62
2023/03/28 03:33:50;;;;;;;8.07;2.95;;;;;;;6.49;52.98;102611.69;5116612;28;20075;-61
2023/03/28 03:36:17;;;;;;;5.15;2.72;;;;;;;6.47;53.55;102608.31;5119257;28;20115;-61
2023/03/28 03:38:46;;;;;;;6.25;2.97;;;;;;;6.48;53.26;102617.19;5113044;28;20078;-61
2023/03/28 03:41:14;;;;;;;10.20;2.67;;;;;;;6.48;53.24;102617.19;5115939;28;20055;-61
2023/03/28 03:43:41;;;;;;;7.40;2.60;;;;;;;6.47;53.14;102615.50;5118523;28;20048;-61
2023/03/28 03:46:13;;;;;;;7.05;2.55;;;;;;;6.45;53.71;102612.13;5117944;28;20044;-61
2023/03/28 03:48:41;;;;;;;8.00;3.28;;;;;;;6.44;53.59;102608.63;5107556;28;20174;-61
2023/03/28 03:51:17;;;;;;;6.30;2.45;;;;;;;6.44;53.50;102610.47;5118574;28;20478;-61
2023/03/28 03:53:45;;;;;;;5.10;2.20;;;;;;;6.42;53.40;102609.78;5115967;28;20107;-61
2023/03/28 03:56:13;;;;;;;10.48;3.75;;;;;;;6.31;53.83;102586.78;5118830;28;20079;-61
2023/03/28 03:58:41;;;;;;;8.15;3.00;;;;;;;6.40;53.69;102609.91;5111498;28;20059;-61
2023/03/28 04:01:12;;;;;;;9.52;3.00;;;;;;;6.40;53.52;102606.41;5114224;28;20123;-61
2023/03/28 04:03:42;;;;;;;6.13;2.83;;;;;;;6.37;53.27;102602.22;5121055;28;20046;-62
2023/03/28 04:06:10;;;;;;;7.50;3.13;;;;;;;6.39;53.54;102607.41;5118196;28;20355;-61
2023/03/28 04:08:38;;;;;;;8.13;3.45;;;;;;;6.29;53.61;102587.94;5114452;28;20142;-61
2023/03/28 04:11:07;;;;;;;10.10;3.95;;;;;;;6.36;53.90;102603.19;5115886;28;20067;-61
2023/03/28 04:13:34;;;;;;;8.32;2.97;;;;;;;6.35;53.50;102598.84;5114025;28;20054;-61
2023/03/28 04:16:03;;;;;;;11.10;3.20;;;;;;;6.34;53.74;102604.34;5117810;28;20055;-61
2023/03/28 04:18:33;;;;;;;12.20;3.92;;;;;;;6.34;53.79;102604.34;5111519;28;20093;-61
2023/03/28 04:21:02;;;;;;;7.78;2.88;;;;;;;6.33;53.34;102606.19;5119195;28;20058;-61
2023/03/28 04:23:30;;;;;;;7.28;3.10;;;;;;;6.32;54.01;102601.81;5116569;28;20039;-61
2023/03/28 04:25:59;;;;;;;7.85;3.05;;;;;;;6.32;53.54;102604.50;5118521;28;20052;-61
2023/03/28 04:28:27;;;;;;;13.13;3.42;;;;;;;6.31;53.68;102600.16;5120443;28;20084;-61
2023/03/28 04:30:57;;;;;;;6.72;3.53;;;;;;;6.32;53.62;102599.16;5118116;28;20544;-61
2023/03/28 04:33:26;;;;;;;8.10;3.47;;;;;;;6.32;53.73;102603.66;5111433;28;20056;-61
2023/03/28 04:35:58;;;;;;;7.18;3.67;;;;;;;6.31;53.73;102599.31;5116599;28;20077;-61
2023/03/28 04:38:31;;;;;;;7.10;3.35;;;;;;;6.29;53.65;102598.63;5120184;28;20672;-61
2023/03/28 04:40:59;;;;;;;10.05;3.58;;;;;;;6.27;53.56;102593.44;5117612;28;20053;-61
2023/03/28 04:43:28;;;;;;;6.53;3.63;;;;;;;6.27;53.81;102598.78;5114368;28;20390;-61
2023/03/28 04:45:56;;;;;;;7.53;3.92;;;;;;;6.29;53.78;102596.78;5110774;28;20103;-61
2023/03/28 04:48:26;;;;;;;10.25;3.42;;;;;;;6.27;53.87;102596.09;5117533;28;20043;-61
2023/03/28 04:50:54;;;;;;;10.27;3.53;;;;;;;6.27;53.63;102593.44;5114014;28;20039;-61
2023/03/28 04:53:23;;;;;;;10.73;4.07;;;;;;;6.28;53.62;102599.59;5118600;28;20322;-61
2023/03/28 04:55:52;;;;;;;7.82;3.78;;;;;;;6.26;53.70;102598.91;5121549;28;20052;-61
2023/03/28 04:58:22;;;;;;;9.00;3.92;;;;;;;6.27;53.91;102597.94;5113791;28;20075;-63
2023/03/28 05:00:50;;;;;;;10.80;4.53;;;;;;;6.25;54.07;102606.09;5121439;28;20071;-64
2023/03/28 05:03:20;;;;;;;8.13;4.15;;;;;;;6.25;53.76;102597.25;5121327;28;20086;-62
2023/03/28 05:05:50;;;;;;;10.57;4.40;;;;;;;6.25;53.92;102607.91;5113086;28;20049;-63
2023/03/28 05:08:19;;;;;;;11.30;4.03;;;;;;;6.24;54.05;102611.56;5116546;28;20067;-63
2023/03/28 05:10:47;;;;;;;8.70;4.28;;;;;;;6.30;53.86;102618.97;5117976;28;20206;-60
2023/03/28 05:13:17;;;;;;;10.98;5.30;;;;;;;6.44;53.20;102615.81;5121253;28;20731;-61
2023/03/28 05:15:46;;;;;;;7.60;3.80;;;;;;;6.59;52.77;102608.09;5114636;28;20047;-61
2023/03/28 05:18:14;;;;;;;11.88;4.28;;;;;;;6.75;52.71;102613.59;5112484;28;20130;-61
2023/03/28 05:20:42;;;;;;;10.82;4.57;;;;;;;6.92;52.35;102610.06;5117484;28;20185;-62
2023/03/28 05:23:10;;;;;;;10.43;4.63;;;;;;;7.09;51.55;102611.00;5118170;28;20048;-63
2023/03/28 05:25:38;;;;;;;9.93;4.43;;;;;;;7.26;51.62;102603.94;5118732;28;20196;-63
2023/03/28 05:28:06;;;;;;;9.88;4.95;;;;;;;7.28;50.99;102609.97;5117299;28;20620;-63
2023/03/28 05:30:35;;;;;;;9.50;4.28;;;;;;;7.19;51.28;102612.59;5112746;28;20078;-64
2023/03/28 05:33:03;;;;;;;10.38;4.75;;;;;;;7.07;51.37;102618.34;5117837;28;20071;-62
2023/03/28 05:35:31;;;;;;;15.25;4.78;;;;;;;6.95;52.22;102617.75;5111486;28;20047;-61
2023/03/28 05:37:59;;;;;;;9.32;5.25;;;;;;;6.85;51.80;102619.69;5115277;28;20050;-62
2023/03/28 05:40:27;;;;;;;8.40;4.35;;;;;;;6.78;52.05;102618.63;5110495;28;20097;-66
2023/03/28 05:42:54;;;;;;;8.07;4.38;;;;;;;6.64;52.50;102616.50;5111424;28;20036;-61
2023/03/28 05:45:22;;;;;;;13.18;5.18;;;;;;;6.50;53.16;102628.53;5112890;28;20065;-63
2023/03/28 05:47:54;;;;;;;12.27;5.15;;;;;;;6.45;53.41;102629.00;4752654;28;9999707;-63
2023/03/28 05:50:22;;;;;;;11.15;4.82;;;;;;;6.44;52.93;102626.47;5102423;28;20139;-64
2023/03/28 05:52:50;;;;;;;13.10;5.45;;;;;;;6.41;53.10;102630.28;5106944;28;20063;-65
2023/03/28 05:55:18;;;;;;;14.80;5.32;;;;;;;6.40;53.56;102628.63;5109927;28;20075;-64
2023/03/28 05:57:46;;;;;;;13.52;4.97;;;;;;;6.38;53.74;102619.91;5104161;28;20043;-63
2023/03/28 06:00:15;;;;;;;10.10;5.20;;;;;;;6.26;53.40;102607.75;5102292;28;20047;-62
2023/03/28 06:02:43;;;;;;;10.10;4.95;;;;;;;6.33;53.55;102621.34;5109049;28;20036;-62
2023/03/28 06:05:12;;;;;;;13.57;5.50;;;;;;;6.30;53.77;102618.97;5106593;28;20093;-62
2023/03/28 06:07:40;;;;;;;10.25;4.78;;;;;;;6.28;53.92;102612.94;5104888;28;20452;-62
2023/03/28 06:10:11;;;;;;;12.55;5.53;;;;;;;6.26;53.66;102606.94;5102658;28;20051;-62
2023/03/28 06:12:40;;;;;;;10.88;5.68;;;;;;;6.25;54.23;102614.09;5099810;28;20387;-63
2023/03/28 06:15:09;;;;;;;10.30;5.18;;;;;;;6.23;54.31;102607.22;5107689;28;20047;-63
2023/03/28 06:17:37;;;;;;;10.68;5.00;;;;;;;6.18;54.61;102619.19;5107223;28;20077;-63
2023/03/28 06:20:08;;;;;;;12.82;5.47;;;;;;;6.18;54.55;102621.88;5114178;28;20047;-63
2023/03/28 06:22:38;;;;;;;12.68;5.82;;;;;;;6.19;54.63;102617.38;5118186;28;20067;-64
2023/03/28 06:25:07;;;;;;;12.98;5.47;;;;;;;6.18;54.56;102621.88;5107480;28;20036;-63
2023/03/28 06:27:35;;;;;;;16.48;5.60;;;;;;;6.18;54.33;102621.03;5107923;28;20052;-63
2023/03/28 06:30:03;;;;;;;12.65;5.25;;;;;;;6.22;54.71;102626.91;5118808;28;20043;-63
2023/03/28 06:32:31;;;;;;;10.07;4.85;;;;;;;6.21;54.39;102623.41;5104133;28;20046;-63
2023/03/28 06:34:59;;;;;;;9.60;4.68;;;;;;;6.24;54.63;102633.78;5120760;28;20055;-63
2023/03/28 06:37:27;;;;;;;8.65;4.88;;;;;;;6.27;54.60;102630.81;5112792;28;20044;-63
2023/03/28 06:39:56;;;;;;;12.38;4.90;;;;;;;6.27;54.38;102627.28;5119563;28;20059;-63
2023/03/28 06:42:24;;;;;;;12.20;4.82;;;;;;;6.26;54.63;102628.28;5116988;28;20348;-63
2023/03/28 06:44:51;;;;;;;12.65;5.05;;;;;;;6.29;54.51;102630.66;5116548;28;20090;-63
2023/03/28 06:47:19;;;;;;;9.15;4.40;;;;;;;6.28;54.69;102626.31;5106245;28;20071;-63
2023/03/28 06:49:47;;;;;;;13.15;4.90;;;;;;;6.28;55.00;102628.97;5112761;28;20559;-63
2023/03/28 06:52:15;;;;;;;10.00;4.43;;;;;;;6.31;54.59;102631.34;5120660;28;20054;-63
2023/03/28 06:54:43;;;;;;;10.05;4.82;;;;;;;6.31;54.74;102631.34;5119852;28;20101;-63
2023/03/28 06:57:16;;;;;;;9.20;4.93;;;;;;;6.32;54.81;102631.19;5111198;28;20137;-63
2023/03/28 06:59:44;;;;;;;11.68;4.30;;;;;;;6.34;54.86;102633.72;5112110;28;20058;-63
2023/03/28 07:02:12;;;;;;;9.93;4.80;;;;;;;6.37;55.00;102638.75;5118654;28;20055;-63
2023/03/28 07:04:40;;;;;;;11.43;4.18;;;;;;;6.39;55.29;102639.44;5113145;28;20135;-63
2023/03/28 07:07:08;;;;;;;13.43;4.35;;;;;;;6.40;54.87;102635.78;5118271;28;20066;-63
2023/03/28 07:09:36;;;;;;;13.07;4.10;;;;;;;6.42;54.76;102639.97;5114869;28;20044;-64
2023/03/28 07:12:05;;;;;;;12.90;4.47;;;;;;;6.38;54.71;102632.44;5117190;28;20146;-63
2023/03/28 07:14:34;;;;;;;12.10;4.95;;;;;;;6.42;55.03;102641.81;5110959;28;20046;-63
2023/03/28 07:17:02;;;;;;;12.57;4.38;;;;;;;6.45;54.78;102645.03;5123347;28;20051;-63
2023/03/28 07:19:30;;;;;;;12.23;4.82;;;;;;;6.46;55.05;102645.88;5116515;28;20051;-62
2023/03/28 07:21:58;;;;;;;9.95;5.47;;;;;;;6.47;54.63;102648.38;5120632;28;20044;-63
2023/03/28 07:24:26;;;;;;;10.50;4.10;;;;;;;6.46;54.59;102644.03;5120356;28;20039;-62
2023/03/28 07:26:54;;;;;;;7.97;4.20;;;;;;;6.48;54.90;102651.91;5116633;28;20058;-63
2023/03/28 07:29:43;;;;;;;13.32;4.63;;;;;;;6.47;55.28;102655.56;5117788;28;20043;-62
2023/03/28 07:32:11;;;;;;;10.15;4.07;;;;;;;6.47;55.04;102656.41;5123281;28;20066;-63
2023/03/28 07:34:38;;;;;;;15.43;4.18;;;;;;;6.51;55.00;102657.78;5122900;28;20063;-62
2023/03/28 07:37:07;;;;;;;10.27;4.47;;;;;;;6.54;54.74;102648.63;5114833;28;21016;-63
2023/03/28 07:39:38;;;;;;;9.40;4.43;;;;;;;6.56;54.94;102668.00;5113113;28;20086;-63
2023/03/28 07:42:10;;;;;;;10.80;3.72;;;;;;;6.55;55.28;102657.47;5123658;28;20130;-62
2023/03/28 07:44:38;;;;;;;11.77;4.15;;;;;;;6.59;54.75;102657.03;5122750;28;20143;-63
2023/03/28 07:47:11;;;;;;;7.50;3.83;;;;;;;6.56;55.15;102659.16;5114251;28;20073;-63
2023/03/28 07:49:39;;;;;;;9.10;3.50;;;;;;;6.57;54.98;102659.00;5113939;28;20074;-63
2023/03/28 07:52:07;;;;;;;6.95;3.38;;;;;;;6.57;55.01;102660.84;5123313;28;20052;-62
2023/03/28 07:54:36;;;;;;;13.13;4.15;;;;;;;6.58;55.01;102658.00;5111122;28;20127;-63
2023/03/28 07:57:04;;;;;;;10.27;3.67;;;;;;;6.55;54.73;102655.66;5117728;28;20051;-63
2023/03/28 07:59:32;;;;;;;8.23;3.72;;;;;;;6.56;54.79;102657.31;5123033;28;20055;-63
2023/03/28 08:01:59;;;;;;;10.45;4.13;;;;;;;6.59;55.17;102656.19;5123317;28;20052;-62
2023/03/28 08:04:29;;;;;;;6.88;3.38;;;;;;;6.60;55.15;102657.88;5120808;28;20100;-62
2023/03/28 08:06:57;;;;;;;15.07;3.45;;;;;;;6.59;55.20;102661.53;5116653;28;20067;-62
2023/03/28 08:09:24;;;;;;;7.95;3.63;;;;;;;6.57;55.28;102653.66;5122091;28;20079;-63
2023/03/28 08:11:52;;;;;;;12.15;3.60;;;;;;;6.59;55.06;102658.84;5123503;28;20077;-63
2023/03/28 08:14:20;;;;;;;9.75;2.83;;;;;;;6.57;55.16;102659.00;5116509;28;20068;-62
2023/03/28 08:16:48;;;;;;;5.22;2.70;;;;;;;6.56;54.93;102662.66;5112686;28;20074;-63
2023/03/28 08:19:16;;;;;;;6.50;3.10;;;;;;;6.57;55.21;102656.34;5118535;28;20087;-63
2023/03/28 08:21:45;;;;;;;7.13;3.08;;;;;;;6.58;55.07;102662.53;5121024;28;20048;-63
2023/03/28 08:24:13;;;;;;;8.93;3.22;;;;;;;6.59;55.04;102662.38;5122096;28;20374;-63
2023/03/28 08:26:55;;;;;;;5.72;2.78;;;;;;;6.64;55.28;102656.56;5122264;28;20043;-63
2023/03/28 08:29:23;;;;;;;11.05;4.03;;;;;;;6.68;55.23;102655.28;5112837;28;20465;-63
2023/03/28 08:31:51;;;;;;;11.30;2.97;;;;;;;6.69;55.34;102657.78;5123115;28;20054;-63
2023/03/28 08:34:19;;;;;;;7.10;3.15;;;;;;;6.70;54.90;102645.28;5120257;28;20058;-63
2023/03/28 08:36:48;;;;;;;7.75;2.80;;;;;;;6.69;55.39;102646.25;5114816;28;20278;-62
2023/03/28 08:39:16;;;;;;;7.78;2.95;;;;;;;6.69;54.96;102641.75;5120493;28;20043;-63
2023/03/28 08:42:17;;;;;;;8.43;2.83;;;;;;;6.63;55.49;102639.69;5123019;28;20062;-63
2023/03/28 08:44:56;;;;;;;8.25;2.92;;;;;;;6.64;55.70;102648.56;5119333;28;20108;-63
2023/03/28 08:47:29;;;;;;;11.00;2.90;;;;;;;6.63;55.28;102645.03;5120881;28;20051;-63
2023/03/28 08:50:01;;;;;;;9.60;3.55;;;;;;;6.64;55.82;102654.75;5120055;28;20043;-63
2023/03/28 08:52:31;;;;;;;10.40;2.53;;;;;;;6.63;55.48;102647.72;5122225;28;20083;-63
2023/03/28 08:55:05;;;;;;;6.70;2.88;;;;;;;6.63;55.85;102644.19;5120663;28;20118;-64
2023/03/28 08:57:35;;;;;;;12.02;2.88;;;;;;;6.72;56.38;102645.97;5120907;28;20047;-63
2023/03/28 09:00:13;;;;;;;5.88;2.67;;;;;;;6.77;56.08;102641.00;5122061;28;20603;-63
2023/03/28 09:02:43;;;;;;;9.85;2.40;;;;;;;6.74;55.58;102633.28;5102271;28;20582;-62
2023/03/28 09:05:15;;;;;;;7.50;2.42;;;;;;;6.73;56.04;102635.13;5117092;28;20504;-62
2023/03/28 09:07:58;;;;;;;10.85;3.03;;;;;;;6.74;55.44;102634.13;5119492;28;20043;-63
2023/03/28 09:10:32;;;;;;;5.53;2.20;;;;;;;6.74;55.61;102631.47;5118404;28;20165;-62
2023/03/28 09:13:10;;;;;;;8.02;2.15;;;;;;;6.78;55.67;102626.66;5107519;28;20308;-63
2023/03/28 09:15:52;;;;;;;4.80;2.13;;;;;;;6.80;55.75;102625.50;5115122;28;20514;-62
2023/03/28 09:18:50;;;;;;;8.90;2.70;;;;;;;6.86;56.44;102632.06;5113010;28;20535;-63
2023/03/28 09:21:27;;;;;;;8.05;2.42;;;;;;;6.85;55.75;102630.38;5114097;28;20044;-62
2023/03/28 09:24:18;;;;;;;5.20;2.13;;;;;;;6.85;55.80;102633.91;5121216;28;20050;-63
2023/03/28 09:26:52;;;;;;;6.43;2.50;;;;;;;6.93;55.59;102627.78;5121198;28;20574;-63
2023/03/28 09:29:23;;;;;;;3.50;1.95;;;;;;;6.90;55.96;102625.41;5114489;28;20080;-63
2023/03/28 09:31:57;;;;;;;10.85;2.58;;;;;;;6.90;56.01;102627.25;5112404;28;20146;-63
2023/03/28 09:34:29;;;;;;;9.23;2.35;;;;;;;6.92;57.02;102620.75;5117644;28;20473;-63
2023/03/28 09:37:02;;;;;;;8.63;2.40;;;;;;;6.82;56.03;102599.47;5120733;28;20071;-63
2023/03/28 09:39:35;;;;;;;5.00;1.92;;;;;;;6.93;56.28;102613.59;5115207;28;20045;-63
2023/03/28 09:42:08;;;;;;;6.40;2.92;;;;;;;6.98;56.59;102619.28;5122020;28;20111;-62
2023/03/28 09:44:41;;;;;;;4.72;1.80;;;;;;;7.02;56.20;102616.13;5109652;28;20159;-63
2023/03/28 09:47:21;;;;;;;10.10;2.20;;;;;;;7.05;56.71;102615.00;5112756;28;20051;-63
2023/03/28 09:49:49;;;;;;;5.65;2.03;;;;;;;7.07;56.58;102608.50;5114348;28;20055;-62
2023/03/28 09:52:30;;;;;;;5.60;1.95;;;;;;;7.08;55.90;102604.81;5118664;28;20139;-63
2023/03/28 09:55:00;;;;;;;6.35;2.03;;;;;;;7.11;56.28;102607.19;5119417;28;20048;-63
2023/03/28 09:58:06;;;;;;;5.95;1.90;;;;;;;7.08;55.97;102595.97;5119635;28;20069;-63
2023/03/28 10:00:36;;;;;;;6.20;2.97;;;;;;;7.08;55.92;102587.94;5118774;28;20062;-63
2023/03/28 10:03:06;;;;;;;5.63;2.30;;;;;;;7.08;56.41;102591.44;5120270;28;20047;-63
2023/03/28 10:05:39;;;;;;;5.45;2.05;;;;;;;7.29;58.07;102582.22;5120023;28;20530;-63
2023/03/28 10:08:23;;;;;;;5.55;2.15;;;;;;;7.27;55.80;102581.56;5119098;28;20048;-63
2023/03/28 10:11:05;;;;;;;3.78;1.38;;;;;;;7.24;56.37;102577.34;5114117;28;20140;-62
2023/03/28 10:13:41;;;;;;;5.47;1.45;;;;;;;7.31;57.08;102561.53;5114379;28;20055;-63
2023/03/28 10:16:12;;;;;;;3.50;1.67;;;;;;;7.30;56.55;102557.16;5111317;28;20378;-63
2023/03/28 10:18:42;;;;;;;11.50;2.38;;;;;;;7.37;56.37;102553.69;5119473;28;20036;-62
2023/03/28 10:21:14;;;;;;;6.45;2.40;;;;;;;7.37;55.74;102551.03;5120514;28;20047;-63
2023/03/28 10:23:45;;;;;;;4.15;1.48;;;;;;;7.36;56.41;102548.50;5107518;28;20056;-63
2023/03/28 10:26:20;;;;;;;7.78;2.10;;;;;;;7.36;56.23;102540.47;5119641;28;20086;-63
2023/03/28 10:28:53;;;;;;;6.97;2.92;;;;;;;7.34;55.70;102551.34;5115856;28;20055;-63
2023/03/28 10:31:28;;;;;;;7.45;1.73;;;;;;;7.35;55.67;102541.47;5118763;28;20059;-63
2023/03/28 10:33:58;;;;;;;6.00;1.92;;;;;;;7.35;55.91;102536.13;5111060;28;20062;-63
2023/03/28 10:36:30;;;;;;;6.43;1.88;;;;;;;7.35;56.22;102533.47;5118399;28;20059;-63
2023/03/28 10:38:59;;;;;;;3.17;1.35;;;;;;;7.44;56.48;102528.00;5110273;28;20071;-63
2023/03/28 10:41:28;;;;;;;2.42;1.10;;;;;;;7.44;55.81;102528.00;5110181;28;20079;-63
2023/03/28 10:43:57;;;;;;;2.60;1.30;;;;;;;7.49;56.15;102522.16;5113777;28;20048;-63
2023/03/28 10:46:30;;;;;;;3.88;1.42;;;;;;;7.50;56.07;102519.31;5117798;28;20164;-63
2023/03/28 10:49:02;;;;;;;6.18;1.80;;;;;;;7.53;55.42;102517.31;5110140;28;20517;-63
2023/03/28 10:51:31;;;;;;;3.42;1.58;;;;;;;7.58;56.51;102515.84;5125536;28;20103;-63
2023/03/28 10:54:16;;;;;;;6.22;1.65;;;;;;;7.58;56.26;102515.00;5124738;28;20086;-64
2023/03/28 10:56:51;;;;;;;6.28;1.38;;;;;;;7.58;56.04;102515.00;5122619;28;20067;-63
2023/03/28 10:59:46;;;;;;;6.38;1.63;;;;;;;7.59;56.44;102519.34;5108420;28;20043;-63
2023/03/28 11:02:40;;;;;;;2.45;1.30;;;;;;;7.75;55.49;102506.88;5124595;28;20561;-63
2023/03/28 11:05:27;;;;;;;4.60;1.55;;;;;;;7.69;55.78;102499.50;5124577;28;20507;-63
2023/03/28 11:08:02;;;;;;;6.85;1.40;;;;;;;7.72;56.57;102495.66;5113090;28;20123;-63
2023/03/28 11:10:38;;;;;;;7.85;2.20;;;;;;;7.93;57.44;102489.88;5117451;28;20119;-63
2023/03/28 11:13:20;;;;;;;2.42;1.35;;;;;;;7.91;56.53;102481.16;5116554;28;20043;-63
2023/03/28 11:15:57;;;;;;;5.53;1.83;;;;;;;7.93;55.79;102479.16;5111944;28;20038;-63
2023/03/28 11:18:38;;;;;;;6.43;2.40;;;;;;;7.92;55.64;102469.44;5113133;28;20494;-63
2023/03/28 11:21:19;;;;;;;3.78;1.50;;;;;;;8.06;55.55;102468.81;5124856;28;20054;-63
2023/03/28 11:23:57;;;;;;;4.80;1.42;;;;;;;7.98;55.80;102463.44;5110970;28;20108;-63
2023/03/28 11:26:38;;;;;;;6.22;1.65;;;;;;;8.25;56.00;102451.56;5122269;28;20268;-63
2023/03/28 11:29:20;;;;;;;5.18;2.10;;;;;;;8.17;56.60;102452.41;5122478;28;20074;-63
2023/03/28 11:32:10;;;;;;;3.03;1.35;;;;;;;8.20;56.50;102446.72;5124692;28;20083;-63
2023/03/28 11:34:43;;;;;;;2.45;1.38;;;;;;;8.23;55.82;102434.84;5118083;28;20044;-63
2023/03/28 11:37:18;;;;;;;7.55;1.50;;;;;;;8.28;56.72;102436.00;5121765;28;20123;-63
2023/03/28 11:39:52;;;;;;;5.80;1.50;;;;;;;8.50;56.87;102420.28;5123226;28;20119;-64
2023/03/28 11:42:26;;;;;;;4.97;1.20;;;;;;;8.32;54.95;102429.31;5115744;28;20103;-63
2023/03/28 11:45:01;;;;;;;6.80;2.00;;;;;;;8.23;54.87;102419.59;5123470;28;20047;-64
2023/03/28 11:47:35;;;;;;;5.68;1.67;;;;;;;8.20;54.59;102409.22;5122589;28;20101;-64
2023/03/28 11:50:10;;;;;;;4.78;1.73;;;;;;;8.45;55.51;102400.19;5110938;28;20058;-63
2023/03/28 11:52:46;;;;;;;5.88;1.50;;;;;;;8.48;55.17;102399.84;5114710;28;20043;-62
2023/03/28 11:55:19;;;;;;;7.25;1.73;;;;;;;8.51;54.43;102401.34;5118318;28;20058;-61